Terminal Aerodrome Forecast
Issued by NWS

Home | Current Version | Previous Version | Text Only | Print | Product List | Glossary On
Versions: 1 2 3 4 5 6 7 8 9 10 11 12 13 14 15 16 17 18 19 20 21 22 23 24
000
FTUS45 KRIW 191500 AAB
TAFLND
TAF AMD
KLND 191536Z 1916/2012 VRB03KT 5SM BR SKC
      TEMPO 1916/1918 3SM BR BKN002
     FM191800 VRB05KT P6SM FEW200
     FM192200 VRB06KT P6SM SCT120 SCT200
     FM200100 VRB04KT P6SM VCFG BKN200=

USA.gov is the U.S. government's official web portal to all federal, state and local government web resources and services.